Time;durP1;ratioP1;P1;durP2;ratioP2;P2;SDS_P1;SDS_P2;PMS_P1;PMS_P2;Temp;Humidity;BMP_temperature;BMP_pressure;BME280_temperature;BME280_humidity;BME280_pressure;Samples;Min_cycle;Max_cycle;Signal;HPM_P1;HPM_P2
2021/09/28 00:00:52;;;;;;;1.43;1.17;;;16.70;98.00;;;;;;5112780;28;20479;-69
2021/09/28 00:03:19;;;;;;;1.40;1.30;;;16.70;98.00;;;;;;5112931;28;20487;-68
2021/09/28 00:05:48;;;;;;;1.20;1.20;;;16.70;98.00;;;;;;5112974;28;20459;-69
2021/09/28 00:08:23;;;;;;;1.40;1.20;;;16.70;98.00;;;;;;5112710;28;20984;-68
2021/09/28 00:10:50;;;;;;;1.40;1.10;;;16.80;98.00;;;;;;5112540;28;21030;-67
2021/09/28 00:13:17;;;;;;;1.20;1.20;;;16.90;98.00;;;;;;5112873;28;20488;-67
2021/09/28 00:15:44;;;;;;;1.20;1.07;;;16.80;98.00;;;;;;5112632;28;20454;-69
2021/09/28 00:18:11;;;;;;;1.20;1.00;;;16.90;98.00;;;;;;5112733;28;20843;-68
2021/09/28 00:20:39;;;;;;;1.40;1.20;;;16.80;98.00;;;;;;5112721;28;21016;-68
2021/09/28 00:23:13;;;;;;;1.20;1.20;;;16.60;98.00;;;;;;5112633;28;20507;-67
2021/09/28 00:25:40;;;;;;;1.20;1.10;;;16.40;98.00;;;;;;5112475;28;20966;-67
2021/09/28 00:28:07;;;;;;;1.20;1.00;;;16.20;98.00;;;;;;5112386;28;20481;-69
2021/09/28 00:30:34;;;;;;;1.20;1.00;;;16.00;98.00;;;;;;5112503;28;20457;-68
2021/09/28 00:33:01;;;;;;;1.20;1.17;;;15.90;98.00;;;;;;5112210;28;20477;-68
2021/09/28 00:35:28;;;;;;;1.30;1.00;;;15.70;98.00;;;;;;5112400;28;20513;-68
2021/09/28 00:37:55;;;;;;;1.20;1.10;;;15.60;98.00;;;;;;5112400;28;20550;-68
2021/09/28 00:40:24;;;;;;;1.20;1.00;;;15.50;98.00;;;;;;5112466;28;20522;-68
2021/09/28 00:42:51;;;;;;;1.20;1.00;;;15.50;98.00;;;;;;5112524;28;20485;-69
2021/09/28 00:45:19;;;;;;;1.20;1.10;;;15.50;98.00;;;;;;5112399;28;20456;-68
2021/09/28 00:47:46;;;;;;;1.20;1.00;;;15.50;98.00;;;;;;5112377;28;20852;-68
2021/09/28 00:50:14;;;;;;;1.20;1.10;;;15.50;98.00;;;;;;5112412;28;20939;-68
2021/09/28 00:52:41;;;;;;;1.20;1.00;;;15.50;98.00;;;;;;5112278;28;20952;-67
2021/09/28 00:55:09;;;;;;;1.30;1.00;;;15.40;98.00;;;;;;5112212;28;20526;-70
2021/09/28 00:57:40;;;;;;;1.40;1.20;;;15.40;98.00;;;;;;5112404;28;20483;-68
2021/09/28 01:00:09;;;;;;;1.30;1.00;;;15.30;98.00;;;;;;5112410;28;20541;-67
2021/09/28 01:02:44;;;;;;;1.20;1.00;;;15.40;98.00;;;;;;5112308;28;20463;-68
2021/09/28 01:05:12;;;;;;;1.20;1.00;;;15.40;98.00;;;;;;5112540;28;20452;-67
2021/09/28 01:07:45;;;;;;;1.20;1.00;;;15.20;98.00;;;;;;5111878;28;21195;-68
2021/09/28 01:10:12;;;;;;;1.20;1.00;;;15.10;98.00;;;;;;5112185;28;20467;-70
2021/09/28 01:12:40;;;;;;;1.20;1.03;;;15.00;98.00;;;;;;5111962;28;20454;-68
2021/09/28 01:15:08;;;;;;;1.20;1.10;;;15.10;98.00;;;;;;5112023;28;20506;-68
2021/09/28 01:17:35;;;;;;;1.20;1.00;;;15.00;98.00;;;;;;5112063;28;20457;-68
2021/09/28 01:20:02;;;;;;;1.20;1.13;;;14.90;98.00;;;;;;5112038;28;20519;-69
2021/09/28 01:22:31;;;;;;;1.20;1.00;;;14.90;98.00;;;;;;5111659;28;20944;-69
2021/09/28 01:25:00;;;;;;;1.20;0.90;;;15.00;98.00;;;;;;5111959;28;20534;-68
2021/09/28 01:27:27;;;;;;;1.20;1.00;;;15.00;98.00;;;;;;5110365;28;20539;-68
2021/09/28 01:29:54;;;;;;;1.20;1.00;;;14.80;98.00;;;;;;5111871;28;20866;-68
2021/09/28 01:32:21;;;;;;;1.20;1.00;;;14.70;98.00;;;;;;5111749;28;20870;-68
2021/09/28 01:34:48;;;;;;;1.37;1.20;;;14.60;98.00;;;;;;5111785;28;20903;-68
2021/09/28 01:37:15;;;;;;;1.20;1.10;;;14.60;98.00;;;;;;5110269;28;20547;-67
2021/09/28 01:39:44;;;;;;;1.30;1.10;;;14.60;98.00;;;;;;5111710;28;20456;-69
2021/09/28 01:42:12;;;;;;;1.20;1.10;;;14.60;98.00;;;;;;5111708;28;20483;-68
2021/09/28 01:44:39;;;;;;;1.20;1.10;;;14.40;98.00;;;;;;5113161;28;20966;-68
2021/09/28 01:47:07;;;;;;;1.20;1.10;;;14.40;98.00;;;;;;5115547;28;20498;-69
2021/09/28 01:49:34;;;;;;;1.20;1.00;;;14.50;98.00;;;;;;5115644;28;20537;-68
2021/09/28 01:52:03;;;;;;;1.20;0.90;;;14.60;98.00;;;;;;5115588;28;20456;-69
2021/09/28 01:54:30;;;;;;;1.20;1.00;;;14.50;98.00;;;;;;5115585;28;20459;-67
2021/09/28 01:56:58;;;;;;;1.20;1.07;;;14.40;98.00;;;;;;5115323;28;20510;-67
2021/09/28 01:59:25;;;;;;;1.57;1.10;;;14.50;98.00;;;;;;5115409;28;20519;-67
2021/09/28 02:01:53;;;;;;;1.20;1.03;;;14.40;98.00;;;;;;5115382;28;20490;-67
2021/09/28 02:04:20;;;;;;;1.20;1.10;;;14.40;98.00;;;;;;5115520;28;20484;-68
2021/09/28 02:06:49;;;;;;;1.20;1.10;;;14.50;98.00;;;;;;5115388;28;20890;-67
2021/09/28 02:09:16;;;;;;;1.20;1.00;;;14.40;98.00;;;;;;5097421;28;20994;-68
2021/09/28 02:11:43;;;;;;;1.43;1.10;;;14.50;98.00;;;;;;5114208;28;20451;-68
2021/09/28 02:14:11;;;;;;;1.30;1.10;;;14.50;98.00;;;;;;5115267;28;20480;-69
2021/09/28 02:16:38;;;;;;;1.30;1.10;;;14.40;98.00;;;;;;5115067;28;20873;-68
2021/09/28 02:19:07;;;;;;;1.20;1.00;;;14.40;98.00;;;;;;5115230;28;20480;-67
2021/09/28 02:21:34;;;;;;;1.20;1.00;;;14.50;98.00;;;;;;5115307;28;20466;-69
2021/09/28 02:24:01;;;;;;;1.20;1.10;;;14.50;98.00;;;;;;5113969;28;20449;-68
2021/09/28 02:26:29;;;;;;;1.20;1.20;;;14.50;98.00;;;;;;5115073;28;20512;-68
2021/09/28 02:28:57;;;;;;;1.20;1.20;;;14.60;98.00;;;;;;5115190;28;20557;-68
2021/09/28 02:31:26;;;;;;;1.20;1.00;;;14.50;98.00;;;;;;5114836;28;21002;-68
2021/09/28 02:34:14;;;;;;;1.20;1.20;;;14.30;98.00;;;;;;5115013;28;20545;-68
2021/09/28 02:36:41;;;;;;;1.20;1.03;;;14.30;98.00;;;;;;5112676;28;20452;-67
2021/09/28 02:39:10;;;;;;;1.20;1.10;;;14.30;98.00;;;;;;5114598;28;20458;-69
2021/09/28 02:41:38;;;;;;;1.20;1.00;;;14.30;98.00;;;;;;5114525;28;20940;-68
2021/09/28 02:44:06;;;;;;;1.20;0.90;;;14.30;98.00;;;;;;5113952;28;20466;-68
2021/09/28 02:46:35;;;;;;;1.20;1.00;;;14.30;98.00;;;;;;5114284;28;20515;-68
2021/09/28 02:49:03;;;;;;;1.20;1.20;;;14.40;98.00;;;;;;5114080;28;20480;-67
2021/09/28 02:51:30;;;;;;;1.20;1.00;;;14.30;98.00;;;;;;5114164;28;20444;-68
2021/09/28 02:53:57;;;;;;;1.20;1.00;;;14.40;98.00;;;;;;5113040;28;21022;-69
2021/09/28 02:56:24;;;;;;;1.43;1.10;;;14.40;98.00;;;;;;5114097;28;20874;-69
2021/09/28 02:58:51;;;;;;;1.20;1.00;;;14.50;98.00;;;;;;5113017;28;20475;-68
2021/09/28 03:01:18;;;;;;;1.30;1.10;;;14.40;98.00;;;;;;5114134;28;20493;-68
2021/09/28 03:03:46;;;;;;;1.20;1.00;;;14.50;98.00;;;;;;5114123;28;20529;-68
2021/09/28 03:06:14;;;;;;;1.20;1.10;;;14.50;98.00;;;;;;5114091;28;20479;-68
2021/09/28 03:08:41;;;;;;;1.20;1.00;;;14.40;98.00;;;;;;5113760;28;20485;-69
2021/09/28 03:11:10;;;;;;;1.20;1.10;;;14.50;98.00;;;;;;5114151;28;20482;-67
2021/09/28 03:13:37;;;;;;;1.20;1.00;;;14.40;98.00;;;;;;5114059;28;20453;-68
2021/09/28 03:16:05;;;;;;;1.20;1.00;;;14.30;98.00;;;;;;5113958;28;20518;-68
2021/09/28 03:18:32;;;;;;;1.20;1.03;;;14.30;98.00;;;;;;5113917;28;20517;-68
2021/09/28 03:21:00;;;;;;;1.20;1.00;;;14.30;98.00;;;;;;5113883;28;20537;-69
2021/09/28 03:23:27;;;;;;;6.83;1.80;;;14.40;98.00;;;;;;5113929;28;20493;-69
2021/09/28 03:25:54;;;;;;;1.30;1.10;;;14.50;98.00;;;;;;5112633;28;20511;-67
2021/09/28 03:28:21;;;;;;;1.20;1.00;;;14.50;98.00;;;;;;5113684;28;20456;-68
2021/09/28 03:30:48;;;;;;;1.63;1.10;;;14.50;98.00;;;;;;5112527;28;20944;-69
2021/09/28 03:33:22;;;;;;;1.20;1.00;;;14.50;98.00;;;;;;5113639;28;20455;-69
2021/09/28 03:35:52;;;;;;;1.20;1.00;;;14.50;98.00;;;;;;5113621;28;20959;-68
2021/09/28 03:38:20;;;;;;;1.40;1.17;;;14.40;98.00;;;;;;5113745;28;20493;-68
2021/09/28 03:40:48;;;;;;;1.20;1.10;;;14.40;98.00;;;;;;5113573;28;20589;-68
2021/09/28 03:43:15;;;;;;;1.20;1.00;;;14.40;98.00;;;;;;5112522;28;20535;-68
2021/09/28 03:45:42;;;;;;;1.20;1.20;;;14.40;98.00;;;;;;5113547;28;20548;-70
2021/09/28 03:48:09;;;;;;;1.20;1.10;;;14.40;98.00;;;;;;5113241;28;20450;-67
2021/09/28 03:50:37;;;;;;;1.20;1.00;;;14.30;98.00;;;;;;5113593;28;20517;-69
2021/09/28 03:53:04;;;;;;;1.20;1.10;;;14.40;98.00;;;;;;5113264;28;20468;-69
2021/09/28 03:55:33;;;;;;;1.47;1.43;;;14.40;98.00;;;;;;5113433;28;20513;-68
2021/09/28 03:58:01;;;;;;;1.20;1.00;;;14.30;98.00;;;;;;5113131;28;21018;-68
2021/09/28 04:00:29;;;;;;;1.57;1.20;;;14.40;98.00;;;;;;5113162;28;20511;-69
2021/09/28 04:02:56;;;;;;;1.40;1.03;;;14.30;98.00;;;;;;5112958;28;20534;-69
2021/09/28 04:05:23;;;;;;;1.20;1.10;;;14.30;98.00;;;;;;5112902;28;20877;-67
2021/09/28 04:07:50;;;;;;;1.20;1.10;;;14.10;98.00;;;;;;5112086;28;20462;-67
2021/09/28 04:10:17;;;;;;;1.33;1.17;;;14.10;98.00;;;;;;5112724;28;20542;-67
2021/09/28 04:12:45;;;;;;;1.30;1.00;;;14.20;98.00;;;;;;5112850;28;20489;-69
2021/09/28 04:15:12;;;;;;;1.20;1.00;;;14.20;98.00;;;;;;5112685;28;20464;-68
2021/09/28 04:17:39;;;;;;;1.20;1.07;;;14.10;98.00;;;;;;5112576;28;20460;-67
2021/09/28 04:20:08;;;;;;;1.20;1.00;;;14.00;98.00;;;;;;5112617;28;20542;-70
2021/09/28 04:22:35;;;;;;;1.20;1.10;;;14.10;98.00;;;;;;5112602;28;20452;-70
2021/09/28 04:25:04;;;;;;;1.20;1.00;;;14.00;98.00;;;;;;5111347;28;20511;-68
2021/09/28 04:27:32;;;;;;;1.20;1.00;;;13.90;98.00;;;;;;5112437;28;20461;-69
2021/09/28 04:30:01;;;;;;;1.30;1.23;;;14.00;98.00;;;;;;5112398;28;21052;-69
2021/09/28 04:32:31;;;;;;;1.20;1.10;;;14.00;98.00;;;;;;5112528;28;20522;-68
2021/09/28 04:34:58;;;;;;;1.20;0.90;;;14.00;98.00;;;;;;5112468;28;20455;-68
2021/09/28 04:37:25;;;;;;;1.20;1.10;;;14.00;98.00;;;;;;5111292;28;20453;-69
2021/09/28 04:39:53;;;;;;;1.20;1.00;;;13.90;98.00;;;;;;5112618;28;20854;-67
2021/09/28 04:42:20;;;;;;;1.20;1.10;;;13.90;98.00;;;;;;5112220;28;20806;-68
2021/09/28 04:44:47;;;;;;;1.20;1.10;;;13.90;98.00;;;;;;5112442;28;20530;-69
2021/09/28 04:47:15;;;;;;;1.20;1.00;;;13.90;98.00;;;;;;5112240;28;20522;-67
2021/09/28 04:49:42;;;;;;;1.50;1.30;;;13.80;98.00;;;;;;5112287;28;20485;-68
2021/09/28 04:52:09;;;;;;;1.20;1.00;;;13.70;98.00;;;;;;5112177;28;20490;-69
2021/09/28 04:54:36;;;;;;;1.20;1.03;;;13.60;98.00;;;;;;5112268;28;20515;-67
2021/09/28 04:57:04;;;;;;;2.37;1.20;;;13.50;98.00;;;;;;5112271;28;20461;-68
2021/09/28 04:59:32;;;;;;;1.20;1.10;;;13.50;98.00;;;;;;5112166;28;20500;-69
2021/09/28 05:01:59;;;;;;;1.20;1.10;;;13.50;98.00;;;;;;5111905;28;20455;-68
2021/09/28 05:04:28;;;;;;;1.80;1.77;;;13.70;98.00;;;;;;5112281;28;20459;-68
2021/09/28 05:06:55;;;;;;;2.17;1.10;;;13.70;98.00;;;;;;5112087;28;20449;-68
2021/09/28 05:09:23;;;;;;;1.20;0.90;;;13.70;98.00;;;;;;5112094;28;20552;-68
2021/09/28 05:11:50;;;;;;;1.40;1.10;;;13.60;98.00;;;;;;5112392;28;20943;-68
2021/09/28 05:14:17;;;;;;;1.20;1.00;;;13.60;98.00;;;;;;5112401;28;20468;-67
2021/09/28 05:16:44;;;;;;;1.30;1.10;;;13.60;98.00;;;;;;5112228;28;20510;-70
2021/09/28 05:19:11;;;;;;;1.77;1.20;;;13.60;98.00;;;;;;5112672;28;20550;-67
2021/09/28 05:21:40;;;;;;;1.20;1.00;;;13.70;98.00;;;;;;5115920;28;20862;-69
2021/09/28 05:24:08;;;;;;;1.27;1.07;;;13.90;98.00;;;;;;5115698;28;20469;-68
2021/09/28 05:26:36;;;;;;;1.20;1.03;;;13.90;98.00;;;;;;5115665;28;20457;-67
2021/09/28 05:29:03;;;;;;;1.20;1.00;;;13.90;98.00;;;;;;5115511;28;20580;-69
2021/09/28 05:31:31;;;;;;;1.40;1.20;;;14.10;98.00;;;;;;5115872;28;20488;-67
2021/09/28 05:33:58;;;;;;;1.70;1.30;;;14.10;98.00;;;;;;5114813;28;20493;-69
2021/09/28 05:36:25;;;;;;;1.20;1.00;;;14.10;98.00;;;;;;5114625;28;20553;-67
2021/09/28 05:38:55;;;;;;;1.33;1.30;;;14.20;98.00;;;;;;5115819;28;20516;-69
2021/09/28 05:41:22;;;;;;;1.30;1.20;;;14.20;98.00;;;;;;5115801;28;20517;-68
2021/09/28 05:43:51;;;;;;;1.50;1.47;;;14.30;98.00;;;;;;5115851;28;20500;-68
2021/09/28 05:46:18;;;;;;;1.60;1.23;;;14.20;98.00;;;;;;5115590;28;20952;-69
2021/09/28 05:48:45;;;;;;;1.20;1.00;;;14.10;98.00;;;;;;5115739;28;20503;-67
2021/09/28 05:51:16;;;;;;;2.03;1.63;;;14.20;98.00;;;;;;5115568;28;20981;-69
2021/09/28 05:53:45;;;;;;;1.83;1.30;;;14.30;98.00;;;;;;5115676;28;20479;-68
2021/09/28 05:56:14;;;;;;;1.30;1.23;;;14.30;98.00;;;;;;5113655;28;20449;-69
2021/09/28 05:58:42;;;;;;;1.33;1.13;;;14.30;98.00;;;;;;5115580;28;20778;-68
2021/09/28 06:01:09;;;;;;;1.50;1.20;;;14.30;98.00;;;;;;5114921;28;20493;-68
2021/09/28 06:03:37;;;;;;;1.50;1.37;;;14.30;98.00;;;;;;5114357;28;20919;-68
2021/09/28 06:06:04;;;;;;;1.70;1.30;;;14.40;98.00;;;;;;5115168;28;20452;-68
2021/09/28 06:08:34;;;;;;;1.50;1.20;;;14.30;98.00;;;;;;5113795;28;20499;-67
2021/09/28 06:11:01;;;;;;;1.87;1.77;;;14.40;98.00;;;;;;5113964;28;20479;-68
2021/09/28 06:13:29;;;;;;;1.47;1.30;;;14.50;98.00;;;;;;5115112;28;20484;-68
2021/09/28 06:15:56;;;;;;;1.30;1.20;;;14.60;98.00;;;;;;5115087;28;20589;-70
2021/09/28 06:18:23;;;;;;;1.80;1.63;;;14.60;98.00;;;;;;5115171;28;20456;-68
2021/09/28 06:20:50;;;;;;;1.40;1.40;;;14.70;98.00;;;;;;5115116;28;20513;-68
2021/09/28 06:23:18;;;;;;;2.60;1.63;;;14.70;98.00;;;;;;5114923;28;20455;-69
2021/09/28 06:25:48;;;;;;;1.50;1.47;;;14.50;98.00;;;;;;5114026;28;20511;-69
2021/09/28 06:28:15;;;;;;;1.73;1.53;;;14.50;98.00;;;;;;5114792;28;20940;-69
2021/09/28 06:30:44;;;;;;;1.73;1.53;;;14.50;98.00;;;;;;5114462;28;20542;-68
2021/09/28 06:33:11;;;;;;;2.00;1.50;;;14.50;98.00;;;;;;5097053;28;20454;-69
2021/09/28 06:35:38;;;;;;;1.87;1.60;;;14.60;98.00;;;;;;5113996;28;20876;-69
2021/09/28 06:38:07;;;;;;;1.90;1.40;;;14.60;98.00;;;;;;5114797;28;20504;-68
2021/09/28 06:40:34;;;;;;;1.73;1.60;;;14.50;98.00;;;;;;5114770;27;20512;-67
2021/09/28 06:43:01;;;;;;;1.20;1.20;;;14.60;98.00;;;;;;5114337;28;20460;-68
2021/09/28 06:45:29;;;;;;;1.70;1.60;;;14.60;98.00;;;;;;5114615;28;20464;-67
2021/09/28 06:48:02;;;;;;;1.70;1.33;;;14.60;98.00;;;;;;5114567;28;20455;-68
2021/09/28 06:50:29;;;;;;;1.50;1.40;;;14.60;98.00;;;;;;5114193;28;20490;-69
2021/09/28 06:52:58;;;;;;;1.60;1.53;;;14.60;98.00;;;;;;5114243;28;20448;-68
2021/09/28 06:55:25;;;;;;;1.67;1.50;;;14.80;98.00;;;;;;5114341;28;20547;-69
2021/09/28 06:57:52;;;;;;;1.80;1.73;;;14.80;98.00;;;;;;5112984;28;20490;-70
2021/09/28 07:00:19;;;;;;;1.33;1.27;;;14.80;98.00;;;;;;5113994;28;20447;-68
2021/09/28 07:02:46;;;;;;;2.27;1.73;;;14.90;98.00;;;;;;5114165;28;21019;-68
2021/09/28 07:05:15;;;;;;;1.30;1.20;;;15.00;98.00;;;;;;5114058;27;20452;-68
2021/09/28 07:07:42;;;;;;;1.50;1.40;;;14.90;98.00;;;;;;5113872;28;20481;-68
2021/09/28 07:10:10;;;;;;;2.70;1.40;;;15.00;98.00;;;;;;5103892;28;21025;-69
2021/09/28 07:12:37;;;;;;;1.30;1.20;;;15.10;98.00;;;;;;5102908;28;20699;-69
2021/09/28 07:15:05;;;;;;;2.53;1.30;;;15.00;98.00;;;;;;5096915;28;20500;-71
2021/09/28 07:17:33;;;;;;;1.50;1.30;;;15.10;98.00;;;;;;5100299;28;20513;-70
2021/09/28 07:20:02;;;;;;;1.30;1.30;;;15.10;98.00;;;;;;5097219;28;20499;-70
2021/09/28 07:22:35;;;;;;;1.30;1.30;;;15.10;98.00;;;;;;5101047;28;21004;-72
2021/09/28 07:25:03;;;;;;;1.50;1.30;;;15.00;98.00;;;;;;5102207;28;20517;-72
2021/09/28 07:27:30;;;;;;;1.53;1.33;;;14.70;98.00;;;;;;5100880;28;20453;-71
2021/09/28 07:29:57;;;;;;;1.30;1.23;;;14.60;98.00;;;;;;5099265;28;20493;-71
2021/09/28 07:32:26;;;;;;;1.50;1.30;;;14.50;98.00;;;;;;5100104;28;20455;-70
2021/09/28 07:34:53;;;;;;;1.47;1.23;;;14.50;98.00;;;;;;5109046;28;20463;-70
2021/09/28 07:37:26;;;;;;;2.13;1.47;;;15.00;98.00;;;;;;5108339;28;20510;-71
2021/09/28 07:39:54;;;;;;;2.87;1.87;;;15.50;98.00;;;;;;5109133;28;20449;-69
2021/09/28 07:42:22;;;;;;;1.53;1.40;;;16.00;98.00;;;;;;5103185;28;20516;-69
2021/09/28 07:44:49;;;;;;;1.30;1.20;;;16.30;98.00;;;;;;5096448;28;20549;-70
2021/09/28 07:47:16;;;;;;;1.80;1.47;;;16.60;98.00;;;;;;5094944;28;20448;-66
2021/09/28 07:49:43;;;;;;;2.00;1.40;;;16.80;98.00;;;;;;5104933;28;20447;-68
2021/09/28 07:52:11;;;;;;;1.40;1.30;;;16.60;98.00;;;;;;5099744;28;20556;-68
2021/09/28 07:54:39;;;;;;;1.50;1.40;;;16.50;98.00;;;;;;5104981;28;20487;-68
2021/09/28 07:57:09;;;;;;;1.70;1.30;;;16.50;98.00;;;;;;5091797;28;20521;-69
2021/09/28 07:59:38;;;;;;;2.23;1.60;;;16.40;98.00;;;;;;5096517;28;20465;-68
2021/09/28 08:02:05;;;;;;;1.70;1.60;;;16.30;98.00;;;;;;5108434;28;20504;-69
2021/09/28 08:04:34;;;;;;;1.73;1.70;;;16.30;98.00;;;;;;5105076;28;20455;-69
2021/09/28 08:07:01;;;;;;;1.60;1.40;;;16.20;98.00;;;;;;5096211;28;20455;-69
2021/09/28 08:09:28;;;;;;;1.30;1.20;;;16.20;98.00;;;;;;5097360;28;20461;-70
2021/09/28 08:11:56;;;;;;;3.10;1.43;;;16.20;98.00;;;;;;5061261;28;21106;-67
2021/09/28 08:14:24;;;;;;;1.47;1.43;;;16.20;98.00;;;;;;5085317;28;20455;-69
2021/09/28 08:16:51;;;;;;;1.83;1.30;;;16.10;98.00;;;;;;5091075;28;20521;-69
2021/09/28 08:19:18;;;;;;;1.57;1.27;;;16.20;98.00;;;;;;5094828;28;20482;-70
2021/09/28 08:21:45;;;;;;;2.43;1.73;;;16.30;98.00;;;;;;5099308;28;20459;-67
2021/09/28 08:24:12;;;;;;;1.50;1.30;;;16.20;98.00;;;;;;5105202;28;20451;-69
2021/09/28 08:29:25;;;;;;;1.40;1.30;;;16.50;98.00;;;;;;5108256;28;20453;-68
2021/09/28 08:31:52;;;;;;;1.60;1.57;;;16.90;98.00;;;;;;5098797;28;20943;-69
2021/09/28 08:34:20;;;;;;;1.83;1.57;;;17.10;98.00;;;;;;5099416;28;20481;-68
2021/09/28 08:36:48;;;;;;;1.40;1.40;;;17.30;98.00;;;;;;5103134;28;20470;-69
2021/09/28 08:39:16;;;;;;;1.90;1.43;;;17.50;98.00;;;;;;5095977;28;20486;-68
2021/09/28 08:41:47;;;;;;;1.53;1.30;;;17.70;98.00;;;;;;5098759;28;20463;-72
2021/09/28 08:44:15;;;;;;;3.73;1.97;;;17.80;98.00;;;;;;5098966;28;20459;-71
2021/09/28 08:46:47;;;;;;;1.83;1.40;;;17.60;98.00;;;;;;5107474;28;20494;-72
2021/09/28 08:49:15;;;;;;;2.20;1.87;;;17.40;98.00;;;;;;5100184;28;20804;-70
2021/09/28 08:51:43;;;;;;;1.30;1.20;;;17.10;98.00;;;;;;5100546;28;20518;-69
2021/09/28 08:54:10;;;;;;;1.40;1.40;;;16.80;98.00;;;;;;5092985;28;20843;-70
2021/09/28 08:56:37;;;;;;;2.13;1.70;;;16.60;98.00;;;;;;5099432;28;20453;-69
2021/09/28 08:59:07;;;;;;;2.13;1.70;;;16.40;98.00;;;;;;5099485;28;20536;-69
2021/09/28 09:01:37;;;;;;;2.00;1.40;;;16.30;98.00;;;;;;5099413;28;20448;-70
2021/09/28 09:04:16;;;;;;;2.03;1.60;;;16.20;98.00;;;;;;5097095;28;20964;-69
2021/09/28 09:06:45;;;;;;;2.73;1.97;;;16.20;98.00;;;;;;5099531;28;20458;-68
2021/09/28 09:09:12;;;;;;;1.50;1.30;;;16.10;98.00;;;;;;5107501;28;21116;-69
2021/09/28 09:11:47;;;;;;;1.43;1.30;;;15.90;98.00;;;;;;5098256;28;20512;-68
2021/09/28 09:14:19;;;;;;;1.83;1.10;;;15.80;98.00;;;;;;5099046;28;20455;-68
2021/09/28 09:16:49;;;;;;;1.30;1.30;;;15.80;98.00;;;;;;5099625;28;20486;-69
2021/09/28 09:19:19;;;;;;;1.50;1.20;;;15.70;98.00;;;;;;5098967;28;20528;-70
2021/09/28 09:21:50;;;;;;;1.50;1.30;;;15.70;98.00;;;;;;5099646;28;20510;-70
2021/09/28 09:24:42;;;;;;;1.50;1.43;;;15.90;98.00;;;;;;5107276;28;20446;-69
2021/09/28 09:27:12;;;;;;;1.20;1.20;;;16.10;98.00;;;;;;5093976;28;20460;-69
2021/09/28 09:29:39;;;;;;;1.83;1.30;;;16.40;98.00;;;;;;5082055;28;20450;-69
2021/09/28 09:32:07;;;;;;;1.53;1.43;;;16.90;98.00;;;;;;5107462;28;20934;-70
2021/09/28 09:34:35;;;;;;;1.83;1.40;;;17.40;98.00;;;;;;5107614;28;20541;-69
2021/09/28 09:37:10;;;;;;;1.50;1.37;;;17.90;98.00;;;;;;5095940;28;20451;-69
2021/09/28 09:39:50;;;;;;;1.40;1.30;;;18.20;98.00;;;;;;5102896;28;20446;-69
2021/09/28 09:42:18;;;;;;;1.50;1.30;;;18.60;98.00;;;;;;5107139;28;20494;-72
2021/09/28 09:44:46;;;;;;;1.23;1.20;;;19.00;98.00;;;;;;5100627;28;20543;-70
2021/09/28 09:47:26;;;;;;;1.50;1.20;;;18.90;98.00;;;;;;5089118;28;20455;-71
2021/09/28 09:50:12;;;;;;;1.73;1.47;;;18.80;98.00;;;;;;5098235;28;20460;-69
2021/09/28 09:53:07;;;;;;;1.50;1.30;;;18.40;98.00;;;;;;5107191;28;20490;-75
2021/09/28 09:55:38;;;;;;;1.20;1.20;;;18.00;98.00;;;;;;5096919;28;20567;-70
2021/09/28 09:58:06;;;;;;;1.57;1.50;;;17.90;98.00;;;;;;5107186;28;20446;-70
2021/09/28 10:00:33;;;;;;;2.20;1.67;;;17.70;98.00;;;;;;5086599;28;21007;-69
2021/09/28 10:03:01;;;;;;;1.60;1.30;;;17.70;98.00;;;;;;5107386;28;20454;-69
2021/09/28 10:05:29;;;;;;;1.37;1.33;;;17.90;98.00;;;;;;5097137;28;20475;-71
2021/09/28 10:07:57;;;;;;;1.30;1.10;;;18.30;98.00;;;;;;5105697;28;20505;-73
2021/09/28 10:10:25;;;;;;;1.50;1.40;;;18.70;98.00;;;;;;5097844;28;20520;-74
2021/09/28 10:12:52;;;;;;;2.60;1.53;;;19.10;98.00;;;;;;5105337;28;20473;-72
2021/09/28 10:15:20;;;;;;;1.50;1.30;;;19.30;98.00;;;;;;5103007;28;20891;-72
2021/09/28 10:17:48;;;;;;;1.37;1.17;;;19.60;97.60;;;;;;5110175;28;20458;-73
2021/09/28 10:20:30;;;;;;;2.17;1.70;;;19.70;96.90;;;;;;5106719;28;20523;-73
2021/09/28 10:22:59;;;;;;;3.43;1.87;;;20.00;96.20;;;;;;5093188;28;20460;-69
2021/09/28 10:25:41;;;;;;;2.17;1.67;;;20.10;98.00;;;;;;5102574;28;20452;-69
2021/09/28 10:28:31;;;;;;;2.40;1.40;;;20.10;95.20;;;;;;5109815;28;20473;-69
2021/09/28 10:30:59;;;;;;;2.27;1.70;;;19.80;97.20;;;;;;5085977;28;20985;-70
2021/09/28 10:33:35;;;;;;;1.30;1.30;;;19.40;98.00;;;;;;5102008;28;20451;-70
2021/09/28 10:36:07;;;;;;;2.13;1.57;;;19.20;98.00;;;;;;5094258;28;20447;-69
2021/09/28 10:38:47;;;;;;;1.43;1.30;;;19.40;98.00;;;;;;5102507;28;22106;-69
2021/09/28 10:41:52;;;;;;;1.80;1.60;;;19.70;98.00;;;;;;5106899;28;20578;-69
2021/09/28 10:44:49;;;;;;;1.40;1.40;;;19.80;97.70;;;;;;5109417;28;20442;-69
2021/09/28 10:48:03;;;;;;;1.50;1.37;;;20.30;97.00;;;;;;5085685;28;20468;-69
2021/09/28 10:50:32;;;;;;;2.20;1.50;;;20.70;93.70;;;;;;5045106;28;20458;-69
2021/09/28 10:53:04;;;;;;;1.50;1.43;;;20.90;92.30;;;;;;5103369;27;20965;-68
2021/09/28 10:55:42;;;;;;;2.33;1.90;;;21.20;91.80;;;;;;5109810;28;20488;-69
2021/09/28 10:58:22;;;;;;;1.90;1.60;;;21.40;90.50;;;;;;5084206;28;20516;-69
2021/09/28 11:01:11;;;;;;;1.33;1.33;;;21.40;90.10;;;;;;5101258;28;20518;-68
2021/09/28 11:04:15;;;;;;;1.30;1.20;;;21.60;89.80;;;;;;5100596;28;20546;-69
2021/09/28 11:06:53;;;;;;;2.70;1.50;;;21.70;90.40;;;;;;5092798;28;20454;-70
2021/09/28 11:09:25;;;;;;;2.37;1.77;;;21.70;89.60;;;;;;5084311;28;21025;-69
2021/09/28 11:11:56;;;;;;;1.60;1.50;;;21.90;89.20;;;;;;5102418;28;20535;-69
2021/09/28 11:14:24;;;;;;;1.83;1.80;;;22.10;86.40;;;;;;5093274;28;20456;-69
2021/09/28 11:16:56;;;;;;;1.90;1.60;;;22.40;87.80;;;;;;5090944;28;20455;-69
2021/09/28 11:19:23;;;;;;;2.23;1.67;;;22.60;88.50;;;;;;5100440;28;20466;-69
2021/09/28 11:21:50;;;;;;;2.43;2.00;;;22.30;87.70;;;;;;5109005;28;20469;-69
2021/09/28 11:24:30;;;;;;;1.90;1.53;;;22.50;86.00;;;;;;5100408;28;20463;-70
2021/09/28 11:27:02;;;;;;;2.43;1.77;;;22.30;85.70;;;;;;5106465;28;20455;-69
2021/09/28 11:29:30;;;;;;;3.10;2.17;;;22.20;85.90;;;;;;5104553;28;20451;-69
2021/09/28 11:31:57;;;;;;;2.00;1.63;;;22.50;86.40;;;;;;5110057;28;20491;-69
2021/09/28 11:34:32;;;;;;;3.40;2.23;;;22.70;85.50;;;;;;5097943;28;20451;-70
2021/09/28 11:37:02;;;;;;;1.73;1.57;;;23.00;86.20;;;;;;5096128;28;20865;-71
2021/09/28 11:39:35;;;;;;;2.03;1.70;;;22.90;86.20;;;;;;5108666;28;20860;-71
2021/09/28 11:42:03;;;;;;;3.40;2.43;;;22.90;87.20;;;;;;5097624;28;20472;-70
2021/09/28 11:44:38;;;;;;;1.50;1.40;;;22.50;85.00;;;;;;5092302;28;20487;-70
2021/09/28 11:47:14;;;;;;;2.97;1.80;;;22.60;84.90;;;;;;5103555;28;20454;-68
2021/09/28 11:49:49;;;;;;;3.00;1.83;;;22.50;84.10;;;;;;5100344;28;20455;-70
2021/09/28 11:52:17;;;;;;;1.77;1.57;;;22.50;84.00;;;;;;5088302;28;20488;-70
2021/09/28 11:54:47;;;;;;;2.53;1.60;;;22.40;85.50;;;;;;5099626;28;20491;-70
2021/09/28 11:57:15;;;;;;;2.80;2.00;;;22.30;85.50;;;;;;5109373;28;20508;-70
2021/09/28 11:59:44;;;;;;;2.07;1.70;;;22.40;88.10;;;;;;5108429;28;20969;-70
2021/09/28 12:02:14;;;;;;;2.00;1.60;;;22.30;87.30;;;;;;5099430;28;21185;-68
2021/09/28 12:08:00;;;;;;;1.70;1.40;;;21.70;89.80;;;;;;5096335;28;20450;-67
2021/09/28 12:10:36;;;;;;;3.30;2.77;;;21.60;87.40;;;;;;5103753;28;20459;-67
2021/09/28 12:13:26;;;;;;;1.30;1.30;;;21.70;89.50;;;;;;5094820;28;20501;-67
2021/09/28 12:16:08;;;;;;;2.20;1.50;;;21.50;89.10;;;;;;5090449;28;20491;-71
2021/09/28 12:18:37;;;;;;;1.50;1.40;;;21.10;90.20;;;;;;5081729;28;20518;-69
2021/09/28 12:21:26;;;;;;;1.67;1.60;;;21.00;90.20;;;;;;5107591;28;20456;-71
2021/09/28 12:24:16;;;;;;;1.70;1.30;;;21.00;89.40;;;;;;5095254;28;20454;-68
2021/09/28 12:26:45;;;;;;;1.87;1.67;;;21.10;89.30;;;;;;5107529;28;20447;-70
2021/09/28 12:29:15;;;;;;;1.53;1.40;;;21.10;91.00;;;;;;5107811;28;20478;-71
2021/09/28 12:31:45;;;;;;;2.30;1.60;;;21.20;89.10;;;;;;5073337;28;21023;-72
2021/09/28 12:34:12;;;;;;;1.63;1.40;;;21.30;88.90;;;;;;5086734;28;20485;-70
2021/09/28 12:36:43;;;;;;;1.60;1.33;;;21.50;87.80;;;;;;5107669;28;20465;-69
2021/09/28 12:39:16;;;;;;;1.50;1.40;;;21.40;86.90;;;;;;5112282;28;20490;-69
2021/09/28 12:42:02;;;;;;;1.53;1.40;;;21.40;88.00;;;;;;5112349;28;20612;-69
2021/09/28 12:44:31;;;;;;;2.00;1.63;;;21.20;86.30;;;;;;5112444;28;20927;-69
2021/09/28 12:46:58;;;;;;;1.70;1.50;;;21.10;88.40;;;;;;5111096;28;20520;-69
2021/09/28 12:49:34;;;;;;;1.80;1.43;;;21.30;88.30;;;;;;5111278;28;20563;-69
2021/09/28 12:52:01;;;;;;;2.17;1.60;;;21.50;88.50;;;;;;5112253;28;20492;-69
2021/09/28 12:54:30;;;;;;;1.50;1.40;;;21.60;88.90;;;;;;5112110;28;20465;-69
2021/09/28 12:56:59;;;;;;;1.60;1.40;;;21.50;88.70;;;;;;5111546;28;20523;-69
2021/09/28 12:59:26;;;;;;;1.93;1.53;;;21.30;89.50;;;;;;5112294;28;20544;-69
2021/09/28 13:01:53;;;;;;;1.70;1.50;;;21.20;88.60;;;;;;5112251;28;20460;-68
2021/09/28 13:04:20;;;;;;;1.80;1.50;;;21.10;88.80;;;;;;5111883;28;20454;-69
2021/09/28 13:06:53;;;;;;;2.93;1.97;;;21.20;88.70;;;;;;5111904;28;20855;-67